createdAt,value
2024-01-26T00:01:46.163Z,3.80
2024-01-26T00:04:39.032Z,4.40
2024-01-26T00:07:32.670Z,4.70
2024-01-26T00:10:25.966Z,4.70
2024-01-26T00:13:18.512Z,2.80
2024-01-26T00:18:58.211Z,4.20
2024-01-26T00:21:50.787Z,4.20
2024-01-26T00:24:45.107Z,5.80
2024-01-26T00:27:38.035Z,5.00
2024-01-26T00:30:32.824Z,4.90
2024-01-26T00:33:25.421Z,5.30
2024-01-26T00:36:18.475Z,4.60
2024-01-26T00:39:11.252Z,5.90
2024-01-26T00:42:04.820Z,4.80
2024-01-26T00:44:49.900Z,4.30
2024-01-26T00:47:43.792Z,6.70
2024-01-26T00:50:36.557Z,4.80
2024-01-26T00:53:29.870Z,5.30
2024-01-26T00:56:25.381Z,4.00
2024-01-26T00:59:19.153Z,5.10
2024-01-26T01:02:12.099Z,6.30
2024-01-26T01:05:08.035Z,4.80
2024-01-26T01:08:00.857Z,5.60
2024-01-26T01:10:53.877Z,4.80
2024-01-26T01:13:48.799Z,6.20
2024-01-26T01:16:42.895Z,5.70
2024-01-26T01:19:35.623Z,5.20
2024-01-26T01:22:29.222Z,4.60
2024-01-26T01:25:22.660Z,5.30
2024-01-26T01:28:16.209Z,5.30
2024-01-26T01:31:09.040Z,6.30
2024-01-26T01:34:01.938Z,6.90
2024-01-26T01:37:15.549Z,5.90
2024-01-26T01:40:11.996Z,5.90
2024-01-26T01:43:06.214Z,4.90
2024-01-26T01:45:58.827Z,8.20
2024-01-26T01:48:53.999Z,7.50
2024-01-26T01:51:50.482Z,5.90
2024-01-26T01:54:44.112Z,6.10
2024-01-26T01:57:40.350Z,7.00
2024-01-26T02:00:36.352Z,6.80
2024-01-26T02:03:31.216Z,5.90
2024-01-26T02:06:24.005Z,6.00
2024-01-26T02:09:17.241Z,5.70
2024-01-26T02:11:56.685Z,5.60
2024-01-26T02:14:49.941Z,4.30
2024-01-26T02:17:42.680Z,5.70
2024-01-26T02:20:46.884Z,4.30
2024-01-26T02:23:45.158Z,4.90
2024-01-26T02:26:27.563Z,4.60
2024-01-26T02:29:20.039Z,5.20
2024-01-26T02:32:12.949Z,4.90
2024-01-26T02:35:05.964Z,4.70
2024-01-26T02:37:58.712Z,4.10
2024-01-26T02:40:44.467Z,4.80
2024-01-26T02:43:39.802Z,4.90
2024-01-26T02:46:33.648Z,4.80
2024-01-26T02:50:13.200Z,3.50
2024-01-26T02:52:42.237Z,3.30
2024-01-26T02:55:35.929Z,4.40
2024-01-26T02:58:31.330Z,4.40
2024-01-26T03:01:27.487Z,5.40
2024-01-26T03:04:21.075Z,5.00
2024-01-26T03:07:22.223Z,4.90
2024-01-26T03:10:15.411Z,4.30
2024-01-26T03:13:09.967Z,5.80
2024-01-26T03:16:02.613Z,5.30
2024-01-26T03:18:58.176Z,5.10
2024-01-26T03:21:50.783Z,5.80
2024-01-26T03:24:45.622Z,5.10
2024-01-26T03:27:38.225Z,4.80
2024-01-26T03:30:34.758Z,4.70
2024-01-26T03:33:27.628Z,5.40
2024-01-26T03:36:21.924Z,5.20
2024-01-26T03:39:14.857Z,6.40
2024-01-26T03:42:12.459Z,5.80
2024-01-26T03:45:05.848Z,4.20
2024-01-26T03:47:59.831Z,6.10
2024-01-26T03:50:53.391Z,5.40
2024-01-26T03:53:46.235Z,5.20
2024-01-26T03:56:39.757Z,5.10
2024-01-26T03:59:25.187Z,5.40
2024-01-26T04:02:22.738Z,6.00
2024-01-26T04:05:15.854Z,5.50
2024-01-26T04:08:20.658Z,6.10
2024-01-26T04:11:06.024Z,4.50
2024-01-26T04:13:58.914Z,4.70
2024-01-26T04:16:41.855Z,5.80
2024-01-26T04:19:34.397Z,5.80
2024-01-26T04:22:27.237Z,5.00
2024-01-26T04:25:19.902Z,5.40
2024-01-26T04:28:12.719Z,4.40
2024-01-26T04:31:05.618Z,4.70
2024-01-26T04:33:59.472Z,5.50
2024-01-26T04:36:52.630Z,4.90
2024-01-26T04:39:46.690Z,4.30
2024-01-26T04:42:39.680Z,4.80
2024-01-26T04:45:32.415Z,4.90
2024-01-26T04:48:24.023Z,6.00
2024-01-26T04:51:17.534Z,4.10
2024-01-26T04:54:01.685Z,5.60
2024-01-26T04:56:54.750Z,5.40
2024-01-26T04:59:33.146Z,7.60
2024-01-26T05:02:25.988Z,5.80
2024-01-26T05:05:25.181Z,4.10
2024-01-26T05:08:18.610Z,5.00
2024-01-26T05:11:11.449Z,4.10
2024-01-26T05:14:04.242Z,3.90
2024-01-26T05:16:55.245Z,4.00
2024-01-26T05:19:48.026Z,5.10
2024-01-26T05:22:40.990Z,5.20
2024-01-26T05:25:34.224Z,4.50
2024-01-26T05:28:27.691Z,4.90
2024-01-26T05:31:11.307Z,4.40
2024-01-26T05:33:55.201Z,4.30
2024-01-26T05:36:44.361Z,5.10
2024-01-26T05:39:37.021Z,5.00
2024-01-26T05:42:29.762Z,5.40
2024-01-26T05:45:22.355Z,5.50
2024-01-26T05:48:15.120Z,4.10
2024-01-26T05:51:08.870Z,4.90
2024-01-26T05:54:04.694Z,5.30
2024-01-26T05:56:57.954Z,4.20
2024-01-26T05:59:50.692Z,3.90
2024-01-26T06:02:43.300Z,3.10
2024-01-26T06:05:38.101Z,4.40
2024-01-26T06:08:29.951Z,5.50
2024-01-26T06:11:13.840Z,3.50
2024-01-26T06:14:06.690Z,4.20
2024-01-26T06:17:00.059Z,5.30
2024-01-26T06:19:53.247Z,4.00
2024-01-26T06:22:46.159Z,5.00
2024-01-26T06:25:39.958Z,5.50
2024-01-26T06:28:26.488Z,6.90
2024-01-26T06:31:19.258Z,7.30
2024-01-26T06:34:12.463Z,6.90
2024-01-26T06:37:05.464Z,7.20
2024-01-26T06:39:59.732Z,6.90
2024-01-26T06:42:53.111Z,7.40
2024-01-26T06:45:47.001Z,7.80
2024-01-26T06:48:40.067Z,8.30
2024-01-26T06:51:33.295Z,8.80
2024-01-26T06:54:26.281Z,6.80
2024-01-26T06:57:04.783Z,8.40
2024-01-26T06:59:59.499Z,9.40
2024-01-26T07:02:52.308Z,8.30
2024-01-26T07:05:45.357Z,7.70
2024-01-26T07:08:40.700Z,8.70
2024-01-26T07:11:36.358Z,8.50
2024-01-26T07:14:32.781Z,7.30
2024-01-26T07:17:28.412Z,6.20
2024-01-26T07:20:12.372Z,6.10
2024-01-26T07:22:50.950Z,7.30
2024-01-26T07:25:43.648Z,6.30
2024-01-26T07:28:19.155Z,6.40
2024-01-26T07:31:01.638Z,7.10
2024-01-26T07:33:43.600Z,6.90
2024-01-26T07:36:21.936Z,7.10
2024-01-26T07:39:07.030Z,7.30
2024-01-26T07:42:00.357Z,6.30
2024-01-26T07:44:53.374Z,6.50
2024-01-26T07:47:48.682Z,5.70
2024-01-26T07:50:41.353Z,7.00
2024-01-26T07:53:37.107Z,9.80
2024-01-26T07:56:32.260Z,12.50
2024-01-26T07:59:25.053Z,6.80
2024-01-26T08:02:18.148Z,7.70
2024-01-26T08:05:14.289Z,6.90
2024-01-26T08:08:09.349Z,7.50
2024-01-26T08:10:45.442Z,8.20
2024-01-26T08:13:29.806Z,8.90
2024-01-26T08:16:23.699Z,11.10
2024-01-26T08:19:17.842Z,11.20
2024-01-26T08:22:10.989Z,12.80
2024-01-26T08:24:59.521Z,12.30
2024-01-26T08:27:54.822Z,10.10
2024-01-26T08:30:37.624Z,8.50
2024-01-26T08:33:31.210Z,8.60
2024-01-26T08:36:26.913Z,8.40
2024-01-26T08:39:14.240Z,9.10
2024-01-26T08:42:07.553Z,7.70
2024-01-26T08:45:00.739Z,10.80
2024-01-26T08:47:56.742Z,9.20
2024-01-26T08:50:49.833Z,6.50
2024-01-26T08:53:44.347Z,7.10
2024-01-26T08:56:20.142Z,7.90
2024-01-26T08:59:05.908Z,8.40
2024-01-26T09:01:41.750Z,8.90
2024-01-26T09:04:24.494Z,6.30
2024-01-26T09:07:20.709Z,6.40
2024-01-26T09:09:58.855Z,6.70
2024-01-26T09:12:46.219Z,6.00
2024-01-26T09:15:21.317Z,5.80
2024-01-26T09:17:54.205Z,7.90
2024-01-26T09:20:50.054Z,6.50
2024-01-26T09:23:46.519Z,6.50
2024-01-26T09:26:42.127Z,5.70
2024-01-26T09:29:17.990Z,8.70
2024-01-26T09:31:58.397Z,6.60
2024-01-26T09:34:42.425Z,4.80
2024-01-26T09:37:16.572Z,11.20
2024-01-26T09:40:15.331Z,9.60
2024-01-26T09:43:08.957Z,8.70
2024-01-26T09:45:45.222Z,7.40
2024-01-26T09:48:38.853Z,8.50
2024-01-26T09:51:33.209Z,9.50
2024-01-26T09:54:08.506Z,9.90
2024-01-26T09:56:57.644Z,8.00
2024-01-26T09:59:52.341Z,7.90
2024-01-26T10:02:37.155Z,9.30
2024-01-26T10:05:30.633Z,9.40
2024-01-26T10:08:03.467Z,7.50
2024-01-26T10:10:39.100Z,10.50
2024-01-26T10:13:21.867Z,10.30
2024-01-26T10:16:10.825Z,8.60
2024-01-26T10:21:38.979Z,9.70
2024-01-26T10:24:34.455Z,9.20
2024-01-26T10:27:27.853Z,9.00
2024-01-26T10:30:15.749Z,9.10
2024-01-26T10:32:49.646Z,9.70
2024-01-26T10:35:49.674Z,9.10
2024-01-26T10:38:30.223Z,9.00
2024-01-26T10:44:17.094Z,8.80
2024-01-26T10:46:53.261Z,9.80
2024-01-26T10:49:50.286Z,10.90
2024-01-26T10:52:44.164Z,10.30
2024-01-26T10:55:37.641Z,11.00
2024-01-26T10:58:30.374Z,10.20
2024-01-26T11:01:23.489Z,13.40
2024-01-26T11:04:08.520Z,9.80
2024-01-26T11:06:45.914Z,11.20
2024-01-26T11:09:21.050Z,12.40
2024-01-26T11:12:00.075Z,8.90
2024-01-26T11:14:37.199Z,12.50
2024-01-26T11:17:13.844Z,10.00
2024-01-26T11:20:14.010Z,10.10
2024-01-26T11:23:12.865Z,11.50
2024-01-26T11:26:01.246Z,10.00
2024-01-26T11:28:54.009Z,11.90
2024-01-26T11:31:46.868Z,10.10
2024-01-26T11:34:40.049Z,11.20
2024-01-26T11:37:33.744Z,10.70
2024-01-26T11:40:10.506Z,12.40
2024-01-26T11:42:54.209Z,13.60
2024-01-26T11:45:43.523Z,19.60
2024-01-26T11:48:19.939Z,11.60
2024-01-26T11:51:13.310Z,11.90
2024-01-26T11:54:09.042Z,10.50
2024-01-26T11:57:03.574Z,14.70
2024-01-26T11:59:55.673Z,12.90
2024-01-26T12:02:48.973Z,19.00
2024-01-26T12:05:42.266Z,18.40
2024-01-26T12:08:35.661Z,12.70
2024-01-26T12:11:29.268Z,15.50
2024-01-26T12:14:22.506Z,17.50
2024-01-26T12:17:15.142Z,17.70
2024-01-26T12:20:12.790Z,20.50
2024-01-26T12:23:07.593Z,14.90
2024-01-26T12:26:00.775Z,14.80
2024-01-26T12:28:55.566Z,12.70
2024-01-26T12:31:49.862Z,15.80
2024-01-26T12:34:38.245Z,10.80
2024-01-26T12:37:51.731Z,9.90
2024-01-26T12:40:27.095Z,12.00
2024-01-26T12:43:19.958Z,12.20
2024-01-26T12:46:14.492Z,17.70
2024-01-26T12:48:57.705Z,19.00
2024-01-26T12:51:43.399Z,14.80
2024-01-26T12:54:36.092Z,12.50
2024-01-26T12:57:23.030Z,16.10
2024-01-26T13:00:18.539Z,27.80
2024-01-26T13:03:10.153Z,18.50
2024-01-26T13:06:03.278Z,20.80
2024-01-26T13:08:56.362Z,12.50
2024-01-26T13:11:29.430Z,12.60
2024-01-26T13:14:22.165Z,11.10
2024-01-26T13:17:15.423Z,10.80
2024-01-26T13:20:19.384Z,15.00
2024-01-26T13:22:59.305Z,12.70
2024-01-26T13:25:53.736Z,11.90
2024-01-26T13:28:47.531Z,18.60
2024-01-26T13:31:33.471Z,14.70
2024-01-26T13:34:26.696Z,30.10
2024-01-26T13:37:19.604Z,26.10
2024-01-26T13:39:58.095Z,20.20
2024-01-26T13:42:52.066Z,18.40
2024-01-26T13:45:28.523Z,18.80
2024-01-26T13:53:50.824Z,15.60
2024-01-26T13:56:44.376Z,13.00
2024-01-26T13:59:37.364Z,14.80
2024-01-26T14:02:30.259Z,15.00
2024-01-26T14:05:23.373Z,15.70
2024-01-26T14:08:16.399Z,18.50
2024-01-26T14:10:52.303Z,16.00
2024-01-26T14:13:45.101Z,15.10
2024-01-26T14:16:20.243Z,15.30
2024-01-26T14:19:13.040Z,18.10
2024-01-26T14:22:05.119Z,20.50
2024-01-26T14:24:58.412Z,22.40
2024-01-26T14:27:46.243Z,23.20
2024-01-26T14:30:44.006Z,24.50
2024-01-26T14:33:29.499Z,19.70
2024-01-26T14:36:22.923Z,19.30
2024-01-26T14:39:17.453Z,16.80
2024-01-26T14:42:10.243Z,15.30
2024-01-26T14:44:45.880Z,14.50
2024-01-26T14:47:21.172Z,16.00
2024-01-26T14:49:54.214Z,15.60
2024-01-26T14:52:27.741Z,15.70
2024-01-26T14:55:22.698Z,19.10
2024-01-26T14:58:04.247Z,18.70
2024-01-26T15:00:43.010Z,19.80
2024-01-26T15:03:25.544Z,37.10
2024-01-26T15:06:01.480Z,41.30
2024-01-26T15:08:45.645Z,61.40
2024-01-26T15:11:41.583Z,62.10
2024-01-26T15:14:24.210Z,63.00
2024-01-26T15:17:19.541Z,50.50
2024-01-26T15:20:08.346Z,42.60
2024-01-26T15:23:01.712Z,35.90
2024-01-26T15:25:54.429Z,32.60
2024-01-26T15:28:47.616Z,32.20
2024-01-26T15:31:40.472Z,30.70
2024-01-26T15:34:21.741Z,34.60
2024-01-26T15:37:17.264Z,31.90
2024-01-26T15:40:15.836Z,38.10
2024-01-26T15:43:08.842Z,52.40
2024-01-26T15:45:48.745Z,62.40
2024-01-26T15:48:42.031Z,73.50
2024-01-26T15:51:35.106Z,68.70
2024-01-26T15:54:28.712Z,60.60
2024-01-26T15:57:21.439Z,61.90
2024-01-26T16:00:16.705Z,63.00
2024-01-26T16:03:30.700Z,68.80
2024-01-26T16:06:23.672Z,74.60
2024-01-26T16:09:17.816Z,67.40
2024-01-26T16:12:11.377Z,61.80
2024-01-26T16:15:05.218Z,65.30
2024-01-26T16:17:58.193Z,66.40
2024-01-26T16:20:51.168Z,70.50
2024-01-26T16:23:44.221Z,74.40
2024-01-26T16:26:37.811Z,82.50
2024-01-26T16:29:30.738Z,76.40
2024-01-26T16:32:23.525Z,70.70
2024-01-26T16:35:16.960Z,66.10
2024-01-26T16:38:09.868Z,65.50
2024-01-26T16:41:02.658Z,60.00
2024-01-26T16:43:55.469Z,60.30
2024-01-26T16:46:48.780Z,60.10
2024-01-26T16:49:41.746Z,59.20
2024-01-26T16:52:36.616Z,56.80
2024-01-26T16:55:32.467Z,56.90
2024-01-26T16:58:28.005Z,52.20
2024-01-26T17:01:21.105Z,51.50
2024-01-26T17:04:06.680Z,56.20
2024-01-26T17:07:02.496Z,70.00
2024-01-26T17:09:56.365Z,74.00
2024-01-26T17:12:50.131Z,60.60
2024-01-26T17:15:41.268Z,62.10
2024-01-26T17:18:35.341Z,61.30
2024-01-26T17:21:29.630Z,56.60
2024-01-26T17:24:22.443Z,66.30
2024-01-26T17:27:15.296Z,76.80
2024-01-26T17:30:09.855Z,71.00
2024-01-26T17:33:49.900Z,52.50
2024-01-26T17:36:11.937Z,51.20
2024-01-26T17:39:06.145Z,47.00
2024-01-26T17:41:59.119Z,53.60
2024-01-26T17:44:53.346Z,48.70
2024-01-26T17:47:36.056Z,46.50
2024-01-26T17:50:28.809Z,48.70
2024-01-26T17:53:21.335Z,52.70
2024-01-26T17:56:13.864Z,57.30
2024-01-26T17:59:06.464Z,56.40
2024-01-26T18:01:59.082Z,53.50
2024-01-26T18:04:51.966Z,59.90
2024-01-26T18:07:44.477Z,58.80
2024-01-26T18:10:37.300Z,59.80
2024-01-26T18:13:29.853Z,57.20
2024-01-26T18:16:22.584Z,58.20
2024-01-26T18:19:17.138Z,60.10
2024-01-26T18:22:09.087Z,62.50
2024-01-26T18:25:01.160Z,63.70
2024-01-26T18:27:55.233Z,74.20
2024-01-26T18:30:48.021Z,82.40
2024-01-26T18:33:41.706Z,105.30
2024-01-26T18:36:34.496Z,126.60
2024-01-26T18:39:27.233Z,103.70
2024-01-26T18:42:19.780Z,116.70
2024-01-26T18:45:34.115Z,98.10
2024-01-26T18:48:27.546Z,62.20
2024-01-26T18:51:20.276Z,61.00
2024-01-26T18:54:34.059Z,62.10
2024-01-26T18:57:28.409Z,58.40
2024-01-26T19:00:21.557Z,58.40
2024-01-26T19:03:07.428Z,54.30
2024-01-26T19:05:50.379Z,53.60
2024-01-26T19:08:43.120Z,54.70
2024-01-26T19:12:21.424Z,58.20
2024-01-26T19:14:50.539Z,55.10
2024-01-26T19:17:43.384Z,49.40
2024-01-26T19:20:36.647Z,54.30
2024-01-26T19:23:32.332Z,45.80
2024-01-26T19:26:26.133Z,44.90
2024-01-26T19:29:19.280Z,49.30
2024-01-26T19:32:12.468Z,55.40
2024-01-26T19:34:47.526Z,64.70
2024-01-26T19:37:40.819Z,56.50
2024-01-26T19:40:33.409Z,55.50
2024-01-26T19:43:26.573Z,55.70
2024-01-26T19:46:19.286Z,58.50
2024-01-26T19:49:02.213Z,58.00
2024-01-26T19:51:54.975Z,57.30
2024-01-26T19:54:47.623Z,53.60
2024-01-26T19:57:41.522Z,49.50
2024-01-26T20:00:34.628Z,45.50
2024-01-26T20:03:27.533Z,37.90
2024-01-26T20:06:20.368Z,42.90
2024-01-26T20:09:13.190Z,41.70
2024-01-26T20:12:06.656Z,38.70
2024-01-26T20:14:59.825Z,35.90
2024-01-26T20:17:55.380Z,39.80
2024-01-26T20:21:08.223Z,42.10
2024-01-26T20:24:04.592Z,44.40
2024-01-26T20:26:58.703Z,44.20
2024-01-26T20:29:51.726Z,44.80
2024-01-26T20:32:48.341Z,38.30
2024-01-26T20:35:42.281Z,38.30
2024-01-26T20:38:37.441Z,35.10
2024-01-26T20:41:30.446Z,35.70
2024-01-26T20:44:23.667Z,40.80
2024-01-26T20:47:17.037Z,33.50
2024-01-26T20:50:16.010Z,33.30
2024-01-26T20:53:09.257Z,34.70
2024-01-26T20:56:04.257Z,38.20
2024-01-26T20:58:59.835Z,32.70
2024-01-26T21:01:53.458Z,31.90
2024-01-26T21:05:06.877Z,33.70
2024-01-26T21:08:01.652Z,30.20
2024-01-26T21:10:54.373Z,34.30
2024-01-26T21:13:46.952Z,32.90
2024-01-26T21:16:39.931Z,31.40
2024-01-26T21:19:32.957Z,33.60
2024-01-26T21:22:25.496Z,35.10
2024-01-26T21:25:19.818Z,34.70
2024-01-26T21:28:12.537Z,32.60
2024-01-26T21:31:06.937Z,36.60
2024-01-26T21:33:59.785Z,34.80
2024-01-26T21:36:52.997Z,36.90
2024-01-26T21:39:48.273Z,34.30
2024-01-26T21:42:40.970Z,29.50
2024-01-26T21:45:33.693Z,22.40
2024-01-26T21:48:26.849Z,22.30
2024-01-26T21:51:19.875Z,21.10
2024-01-26T21:54:16.785Z,20.90
2024-01-26T21:57:09.556Z,20.10
2024-01-26T22:00:02.403Z,18.70
2024-01-26T22:02:38.929Z,16.90
2024-01-26T22:05:34.424Z,23.60
2024-01-26T22:08:27.041Z,22.10
2024-01-26T22:11:19.582Z,21.70
2024-01-26T22:14:13.607Z,33.20
2024-01-26T22:17:06.740Z,28.90
2024-01-26T22:19:59.605Z,74.20
2024-01-26T22:22:52.196Z,33.10
2024-01-26T22:25:37.474Z,60.20
2024-01-26T22:28:30.077Z,39.70
2024-01-26T22:31:25.304Z,23.70
2024-01-26T22:34:18.746Z,20.60
2024-01-26T22:37:19.410Z,19.80
2024-01-26T22:40:14.176Z,18.40
2024-01-26T22:43:18.726Z,19.40
2024-01-26T22:46:02.014Z,20.80
2024-01-26T22:49:15.510Z,20.00
2024-01-26T22:52:08.685Z,17.60
2024-01-26T22:55:03.443Z,17.30
2024-01-26T22:57:48.449Z,19.50
2024-01-26T23:00:41.143Z,17.70
2024-01-26T23:03:33.735Z,17.30
2024-01-26T23:06:26.461Z,15.20
2024-01-26T23:09:19.504Z,13.20
2024-01-26T23:12:12.403Z,14.70
2024-01-26T23:15:06.704Z,13.30
2024-01-26T23:17:59.418Z,14.10
2024-01-26T23:20:54.430Z,12.10
2024-01-26T23:23:46.992Z,12.10
2024-01-26T23:26:40.242Z,11.80
2024-01-26T23:29:32.820Z,12.10
2024-01-26T23:32:25.410Z,12.50
2024-01-26T23:35:18.038Z,13.20
2024-01-26T23:38:12.497Z,11.40
2024-01-26T23:41:08.277Z,11.30
2024-01-26T23:44:02.416Z,10.50
2024-01-26T23:46:57.502Z,10.50
2024-01-26T23:49:50.122Z,10.00
2024-01-26T23:52:42.725Z,11.00
2024-01-26T23:55:35.709Z,11.30
2024-01-26T23:58:28.295Z,10.90
